sensor_id;sensor_type;location;lat;lon;timestamp;P1;durP1;ratioP1;P2;durP2;ratioP2
22525;SDS011;11429;50.842;4.386;2023-07-24T08:01:15;4.07;;;2.20;;
22525;SDS011;11429;50.842;4.386;2023-07-24T08:03:41;4.70;;;2.60;;
22525;SDS011;11429;50.842;4.386;2023-07-24T08:06:07;3.83;;;2.28;;
22525;SDS011;11429;50.842;4.386;2023-07-24T08:08:32;5.38;;;2.67;;
22525;SDS011;11429;50.842;4.386;2023-07-24T08:10:58;3.72;;;2.22;;
22525;SDS011;11429;50.842;4.386;2023-07-24T08:13:28;3.55;;;2.13;;
22525;SDS011;11429;50.842;4.386;2023-07-24T08:15:54;3.85;;;2.33;;
22525;SDS011;11429;50.842;4.386;2023-07-24T08:18:19;2.50;;;2.20;;
22525;SDS011;11429;50.842;4.386;2023-07-24T08:20:45;3.20;;;2.10;;
22525;SDS011;11429;50.842;4.386;2023-07-24T08:23:10;6.13;;;2.55;;
22525;SDS011;11429;50.842;4.386;2023-07-24T08:25:36;4.13;;;2.15;;
22525;SDS011;11429;50.842;4.386;2023-07-24T08:28:02;4.15;;;2.40;;
22525;SDS011;11429;50.842;4.386;2023-07-24T08:30:29;3.40;;;2.92;;
22525;SDS011;11429;50.842;4.386;2023-07-24T08:32:56;3.55;;;2.90;;
22525;SDS011;11429;50.842;4.386;2023-07-24T08:35:22;5.00;;;3.55;;
22525;SDS011;11429;50.842;4.386;2023-07-24T08:37:48;4.95;;;3.80;;
22525;SDS011;11429;50.842;4.386;2023-07-24T08:40:15;5.95;;;3.55;;
22525;SDS011;11429;50.842;4.386;2023-07-24T08:42:42;5.78;;;2.45;;
22525;SDS011;11429;50.842;4.386;2023-07-24T08:45:11;3.45;;;3.05;;
22525;SDS011;11429;50.842;4.386;2023-07-24T08:47:39;4.18;;;3.00;;
22525;SDS011;11429;50.842;4.386;2023-07-24T08:50:09;3.95;;;3.08;;
22525;SDS011;11429;50.842;4.386;2023-07-24T08:52:36;7.68;;;3.50;;
22525;SDS011;11429;50.842;4.386;2023-07-24T08:55:07;5.18;;;2.90;;
22525;SDS011;11429;50.842;4.386;2023-07-24T08:57:34;3.67;;;2.58;;
22525;SDS011;11429;50.842;4.386;2023-07-24T09:00:00;6.35;;;2.92;;
22525;SDS011;11429;50.842;4.386;2023-07-24T09:02:30;4.85;;;2.95;;
22525;SDS011;11429;50.842;4.386;2023-07-24T09:04:59;7.38;;;3.10;;
22525;SDS011;11429;50.842;4.386;2023-07-24T09:07:25;7.15;;;3.13;;
22525;SDS011;11429;50.842;4.386;2023-07-24T09:09:51;3.72;;;2.85;;
22525;SDS011;11429;50.842;4.386;2023-07-24T09:12:17;5.40;;;3.25;;
22525;SDS011;11429;50.842;4.386;2023-07-24T09:14:43;4.75;;;2.95;;
22525;SDS011;11429;50.842;4.386;2023-07-24T09:17:10;4.70;;;3.15;;
22525;SDS011;11429;50.842;4.386;2023-07-24T09:19:37;8.32;;;3.42;;
22525;SDS011;11429;50.842;4.386;2023-07-24T09:24:48;4.93;;;3.70;;
22525;SDS011;11429;50.842;4.386;2023-07-24T09:27:18;6.93;;;4.75;;
22525;SDS011;11429;50.842;4.386;2023-07-24T09:29:44;4.55;;;3.30;;
22525;SDS011;11429;50.842;4.386;2023-07-24T09:32:20;5.72;;;3.35;;
22525;SDS011;11429;50.842;4.386;2023-07-24T09:34:52;5.00;;;3.33;;
22525;SDS011;11429;50.842;4.386;2023-07-24T09:37:25;7.18;;;4.88;;
22525;SDS011;11429;50.842;4.386;2023-07-24T09:39:51;5.82;;;3.95;;
22525;SDS011;11429;50.842;4.386;2023-07-24T09:42:17;5.35;;;3.58;;
22525;SDS011;11429;50.842;4.386;2023-07-24T09:44:42;7.72;;;4.30;;
22525;SDS011;11429;50.842;4.386;2023-07-24T09:47:08;7.72;;;4.32;;
22525;SDS011;11429;50.842;4.386;2023-07-24T09:49:34;8.27;;;4.15;;
22525;SDS011;11429;50.842;4.386;2023-07-24T09:51:59;7.07;;;4.18;;
22525;SDS011;11429;50.842;4.386;2023-07-24T09:54:32;5.70;;;4.00;;
22525;SDS011;11429;50.842;4.386;2023-07-24T09:57:05;6.80;;;4.25;;
22525;SDS011;11429;50.842;4.386;2023-07-24T09:59:33;5.18;;;3.95;;
22525;SDS011;11429;50.842;4.386;2023-07-24T10:02:00;6.18;;;3.95;;
22525;SDS011;11429;50.842;4.386;2023-07-24T10:04:26;5.40;;;3.90;;
22525;SDS011;11429;50.842;4.386;2023-07-24T10:06:53;7.30;;;3.38;;
22525;SDS011;11429;50.842;4.386;2023-07-24T10:09:19;5.43;;;3.33;;
22525;SDS011;11429;50.842;4.386;2023-07-24T10:11:47;7.07;;;3.40;;
22525;SDS011;11429;50.842;4.386;2023-07-24T10:14:13;5.22;;;3.38;;
22525;SDS011;11429;50.842;4.386;2023-07-24T10:16:40;5.80;;;2.90;;
22525;SDS011;11429;50.842;4.386;2023-07-24T10:19:15;4.05;;;2.78;;
22525;SDS011;11429;50.842;4.386;2023-07-24T10:21:44;4.82;;;3.30;;
22525;SDS011;11429;50.842;4.386;2023-07-24T10:24:11;5.40;;;3.05;;
22525;SDS011;11429;50.842;4.386;2023-07-24T10:26:37;3.83;;;2.60;;
22525;SDS011;11429;50.842;4.386;2023-07-24T10:29:03;4.15;;;2.63;;
22525;SDS011;11429;50.842;4.386;2023-07-24T10:31:29;3.88;;;2.83;;
22525;SDS011;11429;50.842;4.386;2023-07-24T10:33:55;4.15;;;3.15;;
22525;SDS011;11429;50.842;4.386;2023-07-24T10:36:32;3.60;;;2.83;;
22525;SDS011;11429;50.842;4.386;2023-07-24T10:38:59;4.32;;;3.03;;
22525;SDS011;11429;50.842;4.386;2023-07-24T10:41:36;4.22;;;2.55;;
22525;SDS011;11429;50.842;4.386;2023-07-24T10:44:02;4.03;;;2.75;;
22525;SDS011;11429;50.842;4.386;2023-07-24T10:46:41;3.60;;;2.75;;
22525;SDS011;11429;50.842;4.386;2023-07-24T10:49:09;5.00;;;2.97;;
22525;SDS011;11429;50.842;4.386;2023-07-24T10:51:36;4.30;;;3.35;;
22525;SDS011;11429;50.842;4.386;2023-07-24T10:54:04;4.88;;;3.38;;
22525;SDS011;11429;50.842;4.386;2023-07-24T10:56:31;4.68;;;3.30;;
22525;SDS011;11429;50.842;4.386;2023-07-24T10:58:56;5.07;;;3.53;;
22525;SDS011;11429;50.842;4.386;2023-07-24T11:01:27;4.25;;;3.47;;
22525;SDS011;11429;50.842;4.386;2023-07-24T11:03:54;5.60;;;3.97;;
22525;SDS011;11429;50.842;4.386;2023-07-24T11:06:20;6.05;;;4.63;;
22525;SDS011;11429;50.842;4.386;2023-07-24T11:08:52;5.63;;;4.10;;
22525;SDS011;11429;50.842;4.386;2023-07-24T11:11:28;5.63;;;4.13;;
22525;SDS011;11429;50.842;4.386;2023-07-24T11:13:55;4.82;;;3.38;;
22525;SDS011;11429;50.842;4.386;2023-07-24T11:16:21;6.30;;;3.72;;
22525;SDS011;11429;50.842;4.386;2023-07-24T11:18:48;6.03;;;3.67;;
22525;SDS011;11429;50.842;4.386;2023-07-24T11:21:16;4.40;;;3.50;;
22525;SDS011;11429;50.842;4.386;2023-07-24T11:23:46;5.88;;;4.00;;
22525;SDS011;11429;50.842;4.386;2023-07-24T11:26:13;5.03;;;4.35;;
22525;SDS011;11429;50.842;4.386;2023-07-24T11:28:39;7.30;;;5.43;;
22525;SDS011;11429;50.842;4.386;2023-07-24T11:31:05;5.25;;;4.03;;
22525;SDS011;11429;50.842;4.386;2023-07-24T11:33:31;4.78;;;4.05;;
22525;SDS011;11429;50.842;4.386;2023-07-24T11:35:57;4.90;;;4.32;;
22525;SDS011;11429;50.842;4.386;2023-07-24T11:38:23;5.50;;;3.90;;
22525;SDS011;11429;50.842;4.386;2023-07-24T11:40:49;5.22;;;3.80;;
22525;SDS011;11429;50.842;4.386;2023-07-24T11:43:24;5.78;;;3.80;;
22525;SDS011;11429;50.842;4.386;2023-07-24T11:45:51;6.28;;;3.92;;
22525;SDS011;11429;50.842;4.386;2023-07-24T11:48:22;6.72;;;4.65;;
22525;SDS011;11429;50.842;4.386;2023-07-24T11:50:52;6.78;;;4.63;;
22525;SDS011;11429;50.842;4.386;2023-07-24T11:53:21;6.03;;;4.70;;
22525;SDS011;11429;50.842;4.386;2023-07-24T11:55:50;7.40;;;4.70;;
22525;SDS011;11429;50.842;4.386;2023-07-24T11:58:17;5.47;;;4.25;;
22525;SDS011;11429;50.842;4.386;2023-07-24T12:00:43;6.50;;;5.32;;
22525;SDS011;11429;50.842;4.386;2023-07-24T12:03:10;6.53;;;4.50;;
22525;SDS011;11429;50.842;4.386;2023-07-24T12:05:39;5.82;;;4.22;;
22525;SDS011;11429;50.842;4.386;2023-07-24T12:08:08;6.88;;;4.80;;
22525;SDS011;11429;50.842;4.386;2023-07-24T12:10:38;4.15;;;3.60;;
22525;SDS011;11429;50.842;4.386;2023-07-24T12:13:04;5.20;;;4.13;;
22525;SDS011;11429;50.842;4.386;2023-07-24T12:15:30;5.38;;;3.70;;
22525;SDS011;11429;50.842;4.386;2023-07-24T12:17:57;6.57;;;3.70;;
22525;SDS011;11429;50.842;4.386;2023-07-24T12:20:23;3.97;;;3.15;;
22525;SDS011;11429;50.842;4.386;2023-07-24T12:22:49;5.50;;;3.70;;
22525;SDS011;11429;50.842;4.386;2023-07-24T12:25:15;4.93;;;3.60;;
22525;SDS011;11429;50.842;4.386;2023-07-24T12:27:41;6.03;;;3.92;;
22525;SDS011;11429;50.842;4.386;2023-07-24T12:30:07;6.18;;;3.95;;
22525;SDS011;11429;50.842;4.386;2023-07-24T12:32:33;5.18;;;3.70;;
22525;SDS011;11429;50.842;4.386;2023-07-24T12:35:00;6.88;;;3.78;;
22525;SDS011;11429;50.842;4.386;2023-07-24T12:37:25;3.90;;;3.33;;
22525;SDS011;11429;50.842;4.386;2023-07-24T12:39:51;8.07;;;4.00;;
22525;SDS011;11429;50.842;4.386;2023-07-24T12:42:17;6.35;;;4.53;;
22525;SDS011;11429;50.842;4.386;2023-07-24T12:44:43;5.75;;;3.70;;
22525;SDS011;11429;50.842;4.386;2023-07-24T12:47:09;4.13;;;3.65;;
22525;SDS011;11429;50.842;4.386;2023-07-24T12:49:36;4.88;;;4.00;;
22525;SDS011;11429;50.842;4.386;2023-07-24T12:52:02;5.82;;;4.20;;
22525;SDS011;11429;50.842;4.386;2023-07-24T12:54:29;5.70;;;3.60;;
22525;SDS011;11429;50.842;4.386;2023-07-24T12:56:54;4.97;;;3.22;;
22525;SDS011;11429;50.842;4.386;2023-07-24T12:59:20;5.82;;;3.45;;
22525;SDS011;11429;50.842;4.386;2023-07-24T13:01:46;5.85;;;3.47;;
22525;SDS011;11429;50.842;4.386;2023-07-24T13:04:12;5.30;;;3.45;;
22525;SDS011;11429;50.842;4.386;2023-07-24T13:06:37;8.48;;;3.75;;
22525;SDS011;11429;50.842;4.386;2023-07-24T13:09:03;3.92;;;3.20;;
22525;SDS011;11429;50.842;4.386;2023-07-24T13:11:30;5.97;;;3.83;;
22525;SDS011;11429;50.842;4.386;2023-07-24T13:13:56;6.47;;;3.90;;
22525;SDS011;11429;50.842;4.386;2023-07-24T13:16:22;5.20;;;3.63;;
22525;SDS011;11429;50.842;4.386;2023-07-24T13:18:48;5.57;;;4.03;;
22525;SDS011;11429;50.842;4.386;2023-07-24T13:21:14;5.03;;;3.85;;
22525;SDS011;11429;50.842;4.386;2023-07-24T13:23:40;6.07;;;3.85;;
22525;SDS011;11429;50.842;4.386;2023-07-24T13:26:06;7.90;;;4.05;;
22525;SDS011;11429;50.842;4.386;2023-07-24T13:28:36;8.13;;;5.57;;
22525;SDS011;11429;50.842;4.386;2023-07-24T13:31:12;5.93;;;3.70;;
22525;SDS011;11429;50.842;4.386;2023-07-24T13:33:38;5.57;;;3.70;;
22525;SDS011;11429;50.842;4.386;2023-07-24T13:36:03;10.43;;;4.35;;
22525;SDS011;11429;50.842;4.386;2023-07-24T13:38:29;7.13;;;3.92;;
22525;SDS011;11429;50.842;4.386;2023-07-24T13:40:55;7.30;;;4.53;;
22525;SDS011;11429;50.842;4.386;2023-07-24T13:43:20;5.75;;;4.00;;
22525;SDS011;11429;50.842;4.386;2023-07-24T13:45:46;6.25;;;3.92;;
22525;SDS011;11429;50.842;4.386;2023-07-24T13:48:12;7.85;;;3.90;;
22525;SDS011;11429;50.842;4.386;2023-07-24T13:50:37;8.35;;;3.92;;
22525;SDS011;11429;50.842;4.386;2023-07-24T13:53:03;4.88;;;3.28;;
22525;SDS011;11429;50.842;4.386;2023-07-24T13:55:29;3.45;;;2.92;;
22525;SDS011;11429;50.842;4.386;2023-07-24T13:57:54;5.03;;;3.33;;
22525;SDS011;11429;50.842;4.386;2023-07-24T14:00:20;4.35;;;3.10;;
22525;SDS011;11429;50.842;4.386;2023-07-24T14:02:46;3.97;;;3.08;;
22525;SDS011;11429;50.842;4.386;2023-07-24T14:05:12;4.78;;;3.15;;
22525;SDS011;11429;50.842;4.386;2023-07-24T14:07:37;6.47;;;3.10;;
22525;SDS011;11429;50.842;4.386;2023-07-24T14:10:03;6.57;;;3.40;;
22525;SDS011;11429;50.842;4.386;2023-07-24T14:12:29;5.88;;;3.20;;
22525;SDS011;11429;50.842;4.386;2023-07-24T14:14:55;6.00;;;2.75;;
22525;SDS011;11429;50.842;4.386;2023-07-24T14:17:20;4.43;;;3.00;;
22525;SDS011;11429;50.842;4.386;2023-07-24T14:19:46;4.05;;;3.25;;
22525;SDS011;11429;50.842;4.386;2023-07-24T14:22:12;5.65;;;3.08;;
22525;SDS011;11429;50.842;4.386;2023-07-24T14:24:37;10.02;;;3.40;;
22525;SDS011;11429;50.842;4.386;2023-07-24T14:27:03;4.72;;;2.97;;
22525;SDS011;11429;50.842;4.386;2023-07-24T14:29:29;6.20;;;3.33;;
22525;SDS011;11429;50.842;4.386;2023-07-24T14:31:54;4.88;;;2.97;;
22525;SDS011;11429;50.842;4.386;2023-07-24T14:34:20;4.47;;;3.65;;
22525;SDS011;11429;50.842;4.386;2023-07-24T14:36:46;4.75;;;3.35;;
22525;SDS011;11429;50.842;4.386;2023-07-24T14:39:11;6.13;;;2.95;;
22525;SDS011;11429;50.842;4.386;2023-07-24T14:41:37;4.88;;;3.10;;
22525;SDS011;11429;50.842;4.386;2023-07-24T14:44:02;4.40;;;3.00;;
22525;SDS011;11429;50.842;4.386;2023-07-24T14:46:28;5.15;;;3.10;;
22525;SDS011;11429;50.842;4.386;2023-07-24T14:48:54;4.57;;;3.03;;
22525;SDS011;11429;50.842;4.386;2023-07-24T14:51:20;3.50;;;2.72;;
22525;SDS011;11429;50.842;4.386;2023-07-24T14:53:45;3.90;;;2.50;;
22525;SDS011;11429;50.842;4.386;2023-07-24T14:56:11;4.40;;;2.85;;
22525;SDS011;11429;50.842;4.386;2023-07-24T14:58:36;6.43;;;3.28;;
22525;SDS011;11429;50.842;4.386;2023-07-24T15:01:02;5.75;;;2.97;;
22525;SDS011;11429;50.842;4.386;2023-07-24T15:03:28;9.70;;;2.50;;
22525;SDS011;11429;50.842;4.386;2023-07-24T15:05:54;3.67;;;2.63;;
22525;SDS011;11429;50.842;4.386;2023-07-24T15:08:21;25.45;;;11.15;;
22525;SDS011;11429;50.842;4.386;2023-07-24T15:10:47;8.63;;;4.05;;
22525;SDS011;11429;50.842;4.386;2023-07-24T15:13:12;6.97;;;4.07;;
22525;SDS011;11429;50.842;4.386;2023-07-24T15:15:38;9.20;;;4.38;;
22525;SDS011;11429;50.842;4.386;2023-07-24T15:18:04;7.03;;;4.20;;
22525;SDS011;11429;50.842;4.386;2023-07-24T15:20:30;6.25;;;4.28;;
22525;SDS011;11429;50.842;4.386;2023-07-24T15:22:56;6.25;;;4.32;;
22525;SDS011;11429;50.842;4.386;2023-07-24T15:25:22;9.20;;;5.40;;
22525;SDS011;11429;50.842;4.386;2023-07-24T15:27:48;7.07;;;4.85;;
22525;SDS011;11429;50.842;4.386;2023-07-24T15:30:14;8.75;;;5.30;;
22525;SDS011;11429;50.842;4.386;2023-07-24T15:32:39;8.88;;;5.30;;
22525;SDS011;11429;50.842;4.386;2023-07-24T15:35:05;10.63;;;5.97;;
22525;SDS011;11429;50.842;4.386;2023-07-24T15:37:31;8.52;;;4.97;;
22525;SDS011;11429;50.842;4.386;2023-07-24T15:40:00;9.52;;;4.60;;
22525;SDS011;11429;50.842;4.386;2023-07-24T15:42:25;6.38;;;5.03;;
22525;SDS011;11429;50.842;4.386;2023-07-24T15:44:51;7.63;;;5.15;;
22525;SDS011;11429;50.842;4.386;2023-07-24T15:47:17;8.10;;;4.57;;
22525;SDS011;11429;50.842;4.386;2023-07-24T15:49:43;7.35;;;4.63;;
22525;SDS011;11429;50.842;4.386;2023-07-24T15:52:09;5.97;;;4.43;;
22525;SDS011;11429;50.842;4.386;2023-07-24T15:54:34;6.40;;;4.32;;
22525;SDS011;11429;50.842;4.386;2023-07-24T15:57:00;7.38;;;4.53;;
22525;SDS011;11429;50.842;4.386;2023-07-24T15:59:26;8.52;;;4.40;;
22525;SDS011;11429;50.842;4.386;2023-07-24T16:01:52;8.80;;;5.35;;
22525;SDS011;11429;50.842;4.386;2023-07-24T16:04:20;12.77;;;4.93;;
22525;SDS011;11429;50.842;4.386;2023-07-24T16:06:46;10.10;;;5.10;;
22525;SDS011;11429;50.842;4.386;2023-07-24T16:09:12;10.20;;;6.05;;
22525;SDS011;11429;50.842;4.386;2023-07-24T16:11:38;9.07;;;5.28;;
22525;SDS011;11429;50.842;4.386;2023-07-24T16:14:04;8.10;;;5.43;;
22525;SDS011;11429;50.842;4.386;2023-07-24T16:16:30;6.35;;;5.18;;
22525;SDS011;11429;50.842;4.386;2023-07-24T16:19:14;11.63;;;6.07;;
22525;SDS011;11429;50.842;4.386;2023-07-24T16:21:45;8.02;;;5.47;;
22525;SDS011;11429;50.842;4.386;2023-07-24T16:24:12;10.05;;;5.82;;
22525;SDS011;11429;50.842;4.386;2023-07-24T16:26:39;7.53;;;6.68;;
22525;SDS011;11429;50.842;4.386;2023-07-24T16:29:05;10.10;;;6.32;;
22525;SDS011;11429;50.842;4.386;2023-07-24T16:31:34;9.85;;;6.30;;
22525;SDS011;11429;50.842;4.386;2023-07-24T16:34:00;8.38;;;6.55;;
22525;SDS011;11429;50.842;4.386;2023-07-24T16:36:26;8.20;;;6.13;;
22525;SDS011;11429;50.842;4.386;2023-07-24T16:38:51;12.63;;;7.10;;
22525;SDS011;11429;50.842;4.386;2023-07-24T16:41:17;9.73;;;6.53;;
22525;SDS011;11429;50.842;4.386;2023-07-24T16:43:43;9.77;;;6.47;;
22525;SDS011;11429;50.842;4.386;2023-07-24T16:46:10;11.20;;;7.15;;
22525;SDS011;11429;50.842;4.386;2023-07-24T16:48:36;8.85;;;7.15;;
22525;SDS011;11429;50.842;4.386;2023-07-24T16:51:02;11.43;;;7.53;;
22525;SDS011;11429;50.842;4.386;2023-07-24T16:53:28;10.15;;;7.30;;
22525;SDS011;11429;50.842;4.386;2023-07-24T16:55:53;9.57;;;7.60;;
22525;SDS011;11429;50.842;4.386;2023-07-24T16:58:19;9.55;;;6.93;;
22525;SDS011;11429;50.842;4.386;2023-07-24T17:00:45;10.13;;;7.38;;
22525;SDS011;11429;50.842;4.386;2023-07-24T17:03:10;8.52;;;5.90;;
22525;SDS011;11429;50.842;4.386;2023-07-24T17:05:36;7.85;;;6.38;;
22525;SDS011;11429;50.842;4.386;2023-07-24T17:08:02;7.57;;;6.00;;
22525;SDS011;11429;50.842;4.386;2023-07-24T17:10:41;9.55;;;5.45;;
22525;SDS011;11429;50.842;4.386;2023-07-24T17:13:08;7.82;;;4.32;;
22525;SDS011;11429;50.842;4.386;2023-07-24T17:15:34;6.28;;;4.93;;
22525;SDS011;11429;50.842;4.386;2023-07-24T17:18:00;5.70;;;4.20;;
22525;SDS011;11429;50.842;4.386;2023-07-24T17:20:25;6.03;;;4.60;;
22525;SDS011;11429;50.842;4.386;2023-07-24T17:22:51;6.63;;;4.65;;
22525;SDS011;11429;50.842;4.386;2023-07-24T17:25:18;7.88;;;4.88;;
22525;SDS011;11429;50.842;4.386;2023-07-24T17:27:43;6.20;;;4.47;;
22525;SDS011;11429;50.842;4.386;2023-07-24T17:30:09;8.00;;;4.63;;
22525;SDS011;11429;50.842;4.386;2023-07-24T17:32:35;5.78;;;4.25;;
22525;SDS011;11429;50.842;4.386;2023-07-24T17:35:01;5.18;;;4.18;;
22525;SDS011;11429;50.842;4.386;2023-07-24T17:37:27;5.38;;;4.22;;
22525;SDS011;11429;50.842;4.386;2023-07-24T17:39:56;6.15;;;4.57;;
22525;SDS011;11429;50.842;4.386;2023-07-24T17:42:21;7.00;;;4.32;;
22525;SDS011;11429;50.842;4.386;2023-07-24T17:44:47;4.82;;;4.00;;
22525;SDS011;11429;50.842;4.386;2023-07-24T17:47:13;4.13;;;3.28;;
22525;SDS011;11429;50.842;4.386;2023-07-24T17:49:39;6.55;;;3.65;;
22525;SDS011;11429;50.842;4.386;2023-07-24T17:52:05;4.55;;;2.90;;
22525;SDS011;11429;50.842;4.386;2023-07-24T17:54:31;7.78;;;2.63;;
22525;SDS011;11429;50.842;4.386;2023-07-24T17:56:57;4.97;;;2.75;;
22525;SDS011;11429;50.842;4.386;2023-07-24T17:59:23;6.38;;;2.65;;
22525;SDS011;11429;50.842;4.386;2023-07-24T18:01:49;6.00;;;2.95;;
22525;SDS011;11429;50.842;4.386;2023-07-24T18:04:14;3.80;;;1.92;;
22525;SDS011;11429;50.842;4.386;2023-07-24T18:06:40;6.78;;;1.90;;
22525;SDS011;11429;50.842;4.386;2023-07-24T18:09:06;6.78;;;2.00;;
22525;SDS011;11429;50.842;4.386;2023-07-24T18:11:31;3.28;;;1.67;;
22525;SDS011;11429;50.842;4.386;2023-07-24T18:13:57;2.78;;;1.40;;
22525;SDS011;11429;50.842;4.386;2023-07-24T18:16:23;2.30;;;0.90;;
22525;SDS011;11429;50.842;4.386;2023-07-24T18:18:48;3.30;;;1.15;;
22525;SDS011;11429;50.842;4.386;2023-07-24T18:21:14;2.85;;;1.63;;
22525;SDS011;11429;50.842;4.386;2023-07-24T18:23:40;2.83;;;1.20;;
22525;SDS011;11429;50.842;4.386;2023-07-24T18:26:05;2.97;;;1.27;;
22525;SDS011;11429;50.842;4.386;2023-07-24T18:28:31;4.13;;;1.35;;
22525;SDS011;11429;50.842;4.386;2023-07-24T18:30:57;4.25;;;1.20;;
22525;SDS011;11429;50.842;4.386;2023-07-24T18:33:23;2.25;;;1.08;;
22525;SDS011;11429;50.842;4.386;2023-07-24T18:35:48;2.35;;;1.17;;
22525;SDS011;11429;50.842;4.386;2023-07-24T18:38:14;3.45;;;1.00;;
22525;SDS011;11429;50.842;4.386;2023-07-24T18:40:40;3.53;;;1.20;;
22525;SDS011;11429;50.842;4.386;2023-07-24T18:43:05;3.55;;;0.90;;
22525;SDS011;11429;50.842;4.386;2023-07-24T18:45:31;3.20;;;0.90;;
22525;SDS011;11429;50.842;4.386;2023-07-24T18:47:57;4.32;;;1.25;;
22525;SDS011;11429;50.842;4.386;2023-07-24T18:50:25;5.88;;;1.00;;
22525;SDS011;11429;50.842;4.386;2023-07-24T18:52:51;3.70;;;1.25;;
22525;SDS011;11429;50.842;4.386;2023-07-24T18:55:17;1.80;;;0.70;;
22525;SDS011;11429;50.842;4.386;2023-07-24T18:57:42;5.88;;;1.52;;
22525;SDS011;11429;50.842;4.386;2023-07-24T19:00:08;7.82;;;1.40;;
22525;SDS011;11429;50.842;4.386;2023-07-24T19:02:34;3.72;;;1.10;;
22525;SDS011;11429;50.842;4.386;2023-07-24T19:05:00;3.10;;;1.10;;
22525;SDS011;11429;50.842;4.386;2023-07-24T19:07:26;2.78;;;1.27;;
22525;SDS011;11429;50.842;4.386;2023-07-24T19:09:51;2.15;;;0.98;;
22525;SDS011;11429;50.842;4.386;2023-07-24T19:12:17;4.88;;;1.50;;
22525;SDS011;11429;50.842;4.386;2023-07-24T19:14:43;3.55;;;1.33;;
22525;SDS011;11429;50.842;4.386;2023-07-24T19:17:08;2.72;;;1.25;;
22525;SDS011;11429;50.842;4.386;2023-07-24T19:19:34;2.35;;;1.17;;
22525;SDS011;11429;50.842;4.386;2023-07-24T19:22:00;5.30;;;1.35;;
22525;SDS011;11429;50.842;4.386;2023-07-24T19:24:25;5.18;;;1.30;;
22525;SDS011;11429;50.842;4.386;2023-07-24T19:26:51;4.07;;;1.33;;
22525;SDS011;11429;50.842;4.386;2023-07-24T19:29:17;3.42;;;1.23;;
22525;SDS011;11429;50.842;4.386;2023-07-24T19:31:42;5.43;;;1.45;;
22525;SDS011;11429;50.842;4.386;2023-07-24T19:34:08;3.72;;;1.40;;
22525;SDS011;11429;50.842;4.386;2023-07-24T19:36:34;3.22;;;1.40;;
22525;SDS011;11429;50.842;4.386;2023-07-24T19:38:59;5.28;;;1.52;;
22525;SDS011;11429;50.842;4.386;2023-07-24T19:41:25;3.33;;;1.40;;
22525;SDS011;11429;50.842;4.386;2023-07-24T19:43:51;3.45;;;1.38;;
22525;SDS011;11429;50.842;4.386;2023-07-24T19:46:16;6.35;;;1.60;;
22525;SDS011;11429;50.842;4.386;2023-07-24T19:48:42;3.58;;;1.40;;
22525;SDS011;11429;50.842;4.386;2023-07-24T19:51:08;4.30;;;1.45;;
22525;SDS011;11429;50.842;4.386;2023-07-24T19:53:33;7.38;;;1.50;;
22525;SDS011;11429;50.842;4.386;2023-07-24T19:55:59;3.92;;;1.90;;
22525;SDS011;11429;50.842;4.386;2023-07-24T19:58:26;4.72;;;1.83;;
22525;SDS011;11429;50.842;4.386;2023-07-24T20:00:52;4.82;;;2.60;;
22525;SDS011;11429;50.842;4.386;2023-07-24T20:03:21;3.95;;;1.45;;
22525;SDS011;11429;50.842;4.386;2023-07-24T20:08:23;4.97;;;2.10;;
22525;SDS011;11429;50.842;4.386;2023-07-24T20:10:50;4.30;;;1.70;;
22525;SDS011;11429;50.842;4.386;2023-07-24T20:13:16;5.05;;;1.90;;
22525;SDS011;11429;50.842;4.386;2023-07-24T20:15:42;8.27;;;2.88;;
22525;SDS011;11429;50.842;4.386;2023-07-24T20:18:09;5.20;;;2.05;;
22525;SDS011;11429;50.842;4.386;2023-07-24T20:20:36;18.40;;;14.35;;
22525;SDS011;11429;50.842;4.386;2023-07-24T20:23:02;7.47;;;2.30;;
22525;SDS011;11429;50.842;4.386;2023-07-24T20:25:28;5.88;;;2.30;;
22525;SDS011;11429;50.842;4.386;2023-07-24T20:27:54;5.65;;;2.20;;
22525;SDS011;11429;50.842;4.386;2023-07-24T20:30:20;6.72;;;2.53;;
22525;SDS011;11429;50.842;4.386;2023-07-24T20:32:45;5.90;;;2.60;;
22525;SDS011;11429;50.842;4.386;2023-07-24T20:35:11;6.07;;;2.55;;
22525;SDS011;11429;50.842;4.386;2023-07-24T20:37:37;7.97;;;2.38;;
22525;SDS011;11429;50.842;4.386;2023-07-24T20:40:03;4.20;;;2.58;;
22525;SDS011;11429;50.842;4.386;2023-07-24T20:42:31;6.32;;;2.20;;
22525;SDS011;11429;50.842;4.386;2023-07-24T20:44:57;4.53;;;2.38;;
22525;SDS011;11429;50.842;4.386;2023-07-24T20:47:23;6.82;;;2.45;;
22525;SDS011;11429;50.842;4.386;2023-07-24T20:49:49;5.57;;;2.05;;
22525;SDS011;11429;50.842;4.386;2023-07-24T20:52:14;5.95;;;2.38;;
22525;SDS011;11429;50.842;4.386;2023-07-24T20:54:40;8.25;;;2.38;;
22525;SDS011;11429;50.842;4.386;2023-07-24T20:57:09;6.50;;;2.30;;
22525;SDS011;11429;50.842;4.386;2023-07-24T20:59:35;5.13;;;1.88;;
22525;SDS011;11429;50.842;4.386;2023-07-24T21:02:00;4.43;;;1.63;;
22525;SDS011;11429;50.842;4.386;2023-07-24T21:04:27;5.28;;;2.25;;
22525;SDS011;11429;50.842;4.386;2023-07-24T21:06:52;10.57;;;3.00;;
22525;SDS011;11429;50.842;4.386;2023-07-24T21:09:18;6.47;;;1.92;;
22525;SDS011;11429;50.842;4.386;2023-07-24T21:11:45;8.57;;;2.20;;
22525;SDS011;11429;50.842;4.386;2023-07-24T21:14:10;4.60;;;2.03;;
22525;SDS011;11429;50.842;4.386;2023-07-24T21:16:37;4.75;;;2.28;;
22525;SDS011;11429;50.842;4.386;2023-07-24T21:19:03;5.32;;;2.03;;
22525;SDS011;11429;50.842;4.386;2023-07-24T21:21:29;6.75;;;2.20;;
22525;SDS011;11429;50.842;4.386;2023-07-24T21:23:54;4.05;;;2.30;;
22525;SDS011;11429;50.842;4.386;2023-07-24T21:26:20;7.68;;;2.58;;
22525;SDS011;11429;50.842;4.386;2023-07-24T21:28:46;5.30;;;2.40;;
22525;SDS011;11429;50.842;4.386;2023-07-24T21:31:12;7.28;;;2.53;;
22525;SDS011;11429;50.842;4.386;2023-07-24T21:33:38;5.15;;;2.60;;
22525;SDS011;11429;50.842;4.386;2023-07-24T21:36:04;6.45;;;2.90;;
22525;SDS011;11429;50.842;4.386;2023-07-24T21:38:30;6.32;;;2.70;;
22525;SDS011;11429;50.842;4.386;2023-07-24T21:40:57;7.25;;;3.10;;
22525;SDS011;11429;50.842;4.386;2023-07-24T21:43:23;13.13;;;3.25;;
22525;SDS011;11429;50.842;4.386;2023-07-24T21:45:49;9.50;;;2.88;;
22525;SDS011;11429;50.842;4.386;2023-07-24T21:48:16;7.93;;;2.78;;
22525;SDS011;11429;50.842;4.386;2023-07-24T21:50:46;7.72;;;2.90;;
22525;SDS011;11429;50.842;4.386;2023-07-24T21:53:16;7.43;;;3.00;;
22525;SDS011;11429;50.842;4.386;2023-07-24T21:55:42;7.78;;;2.42;;
22525;SDS011;11429;50.842;4.386;2023-07-24T21:58:08;5.78;;;2.70;;
22525;SDS011;11429;50.842;4.386;2023-07-24T22:00:34;6.95;;;2.90;;
22525;SDS011;11429;50.842;4.386;2023-07-24T22:03:01;6.20;;;3.28;;
22525;SDS011;11429;50.842;4.386;2023-07-24T22:05:27;5.32;;;3.00;;
22525;SDS011;11429;50.842;4.386;2023-07-24T22:07:52;6.28;;;3.05;;
22525;SDS011;11429;50.842;4.386;2023-07-24T22:10:18;7.55;;;2.85;;
22525;SDS011;11429;50.842;4.386;2023-07-24T22:12:44;5.35;;;2.92;;
22525;SDS011;11429;50.842;4.386;2023-07-24T22:15:10;6.88;;;3.00;;
22525;SDS011;11429;50.842;4.386;2023-07-24T22:17:36;8.43;;;3.10;;
22525;SDS011;11429;50.842;4.386;2023-07-24T22:20:02;8.23;;;3.10;;
22525;SDS011;11429;50.842;4.386;2023-07-24T22:22:31;7.10;;;3.05;;
22525;SDS011;11429;50.842;4.386;2023-07-24T22:24:58;6.28;;;3.22;;
22525;SDS011;11429;50.842;4.386;2023-07-24T22:27:23;5.63;;;2.58;;
22525;SDS011;11429;50.842;4.386;2023-07-24T22:29:50;8.32;;;3.50;;
22525;SDS011;11429;50.842;4.386;2023-07-24T22:32:16;7.28;;;3.33;;
22525;SDS011;11429;50.842;4.386;2023-07-24T22:34:42;8.35;;;3.20;;
22525;SDS011;11429;50.842;4.386;2023-07-24T22:37:10;8.27;;;3.42;;
22525;SDS011;11429;50.842;4.386;2023-07-24T22:39:36;6.93;;;3.35;;
22525;SDS011;11429;50.842;4.386;2023-07-24T22:42:02;9.85;;;3.40;;
22525;SDS011;11429;50.842;4.386;2023-07-24T22:44:28;5.90;;;2.90;;
22525;SDS011;11429;50.842;4.386;2023-07-24T22:46:53;8.35;;;3.33;;
22525;SDS011;11429;50.842;4.386;2023-07-24T22:49:19;5.30;;;3.17;;